Westgard — PDBQ — position and weather

sailwx.info

Track history (hours):
 
Tides and Currents Weather Stations Pressure Air Temp Water Temp Dewpoint Dewpoint Depression Visibility Wind Speed Wind Dir Waves Ship Positions

Westgard

Last reported at 2016-Dec-10 21:33 UTC. Time now 2016-Dec-10 22:22 UTC.
Position N 50°03' W 003°60'.

Length 89 m; draft 5.7 m.

Type: Ship. MMSI: 246457000.

Date/timePositionNaut miles runAvg speedWind from/ knotsBaromVisibWave heightAir tempDewpointWater temp
2016-Dec-10 21:33N 50°03' W 003°60'1111.6
2016-Dec-10 20:33N 50°05' W 003°42'1111.2
2016-Dec-10 19:33N 50°08' W 003°25'1010.0
2016-Dec-10 18:33N 50°10' W 003°10'9 8.9
2016-Dec-10 17:33N 50°11' W 002°56'10210.1
2016-Dec-10 07:27N 50°31' W 000°19'8 9.3
2016-Dec-10 06:34N 50°32' W 000°07'8 8.4
2016-Dec-10 05:34N 50°34' E 000°06'9 8.1
2016-Dec-10 04:28N 50°36' E 000°20'28 9.4
2016-Dec-10 01:32N 50°49' E 000°58'1110.9
2016-Dec-10 00:32N 50°56' E 001°12'1010.6
2016-Dec-09 23:34N 51°03' E 001°24'9 9.3
2016-Dec-09 22:33N 51°09' E 001°35'8 8.0
2016-Dec-09 21:34N 51°14' E 001°45'8 8.1
2016-Dec-09 20:34N 51°20' E 001°53'9 8.4
2016-Dec-09 19:33N 51°27' E 002°01'9 9.1
2016-Dec-09 18:33N 51°34' E 002°10'1010.2
2016-Dec-09 17:32N 51°42' E 002°21'110 9.9
2016-Dec-09 06:23N 53°07' E 004°16'152 9.0
2016-Dec-08 13:30N 54°01' E 008°16'9 9.7
2016-Dec-08 12:33N 53°58' E 008°31'1212.1
2016-Dec-08 11:33N 53°51' E 008°47'1312.7
2016-Dec-08 10:34N 53°53' E 009°08'1 1.3
2016-Dec-08 09:33N 53°54' E 009°10'5 5.5
2016-Dec-08 08:33N 53°58' E 009°16'24 7.4
2016-Dec-08 05:23N 54°17' E 009°39'5 5.8
2016-Dec-08 04:32N 54°21' E 009°45'8 7.9
2016-Dec-08 03:33N 54°21' E 009°59'6 6.0
2016-Dec-08 02:33N 54°22' E 010°09'2 1.6
2016-Dec-08 01:33N 54°23' E 010°11'9 9.3
2016-Dec-08 00:33N 54°30' E 010°20'10 9.6
2016-Dec-07 23:33N 54°34' E 010°35'9 9.2
2016-Dec-07 22:34N 54°35' E 010°51'9 8.7
2016-Dec-07 21:33N 54°36' E 011°06'9 9.0
2016-Dec-07 20:33N 54°34' E 011°21'11 9.6
2016-Dec-07 19:25N 54°31' E 011°39'8 8.8
2016-Dec-07 18:31N 54°29' E 011°52'9 9.0
2016-Dec-07 17:34N 54°28' E 012°07'8 8.0
2016-Dec-07 16:33N 54°33' E 012°17'80 9.7
2016-Dec-07 08:20N 54°39' E 014°34'12 9.8
2016-Dec-07 07:07N 54°41' E 014°54'12810.2
2016-Dec-06 18:34N 54°56' E 018°35'10 9.8
2016-Dec-06 17:33N 54°54' E 018°51'10 9.7
2016-Dec-06 16:34N 54°51' E 019°07'  
Track history (hours):
 
Tides and Currents Weather Stations Pressure Air Temp Water Temp Dewpoint Dewpoint Depression Visibility Wind Speed Wind Dir Waves Ship Positions

Westgard

Last reported at 2016-Dec-10 21:33 UTC. Time now 2016-Dec-10 22:22 UTC.
Position N 50°03' W 003°60'.

Length 89 m; draft 5.7 m.

Type: Ship. MMSI: 246457000.

Date/timePositionNaut miles runAvg speedWind from/ knotsBaromVisibWave heightAir tempDewpointWater temp
2016-Dec-10 21:33N 50°03' W 003°60'1111.6
2016-Dec-10 20:33N 50°05' W 003°42'1111.2
2016-Dec-10 19:33N 50°08' W 003°25'1010.0
2016-Dec-10 18:33N 50°10' W 003°10'9 8.9
2016-Dec-10 17:33N 50°11' W 002°56'10210.1
2016-Dec-10 07:27N 50°31' W 000°19'8 9.3
2016-Dec-10 06:34N 50°32' W 000°07'8 8.4
2016-Dec-10 05:34N 50°34' E 000°06'9 8.1
2016-Dec-10 04:28N 50°36' E 000°20'28 9.4
2016-Dec-10 01:32N 50°49' E 000°58'1110.9
2016-Dec-10 00:32N 50°56' E 001°12'1010.6
2016-Dec-09 23:34N 51°03' E 001°24'9 9.3
2016-Dec-09 22:33N 51°09' E 001°35'8 8.0
2016-Dec-09 21:34N 51°14' E 001°45'8 8.1
2016-Dec-09 20:34N 51°20' E 001°53'9 8.4
2016-Dec-09 19:33N 51°27' E 002°01'9 9.1
2016-Dec-09 18:33N 51°34' E 002°10'1010.2
2016-Dec-09 17:32N 51°42' E 002°21'110 9.9
2016-Dec-09 06:23N 53°07' E 004°16'152 9.0
2016-Dec-08 13:30N 54°01' E 008°16'9 9.7
2016-Dec-08 12:33N 53°58' E 008°31'1212.1
2016-Dec-08 11:33N 53°51' E 008°47'1312.7
2016-Dec-08 10:34N 53°53' E 009°08'1 1.3
2016-Dec-08 09:33N 53°54' E 009°10'5 5.5
2016-Dec-08 08:33N 53°58' E 009°16'24 7.4
2016-Dec-08 05:23N 54°17' E 009°39'5 5.8
2016-Dec-08 04:32N 54°21' E 009°45'8 7.9
2016-Dec-08 03:33N 54°21' E 009°59'6 6.0
2016-Dec-08 02:33N 54°22' E 010°09'2 1.6
2016-Dec-08 01:33N 54°23' E 010°11'9 9.3
2016-Dec-08 00:33N 54°30' E 010°20'10 9.6
2016-Dec-07 23:33N 54°34' E 010°35'9 9.2
2016-Dec-07 22:34N 54°35' E 010°51'9 8.7
2016-Dec-07 21:33N 54°36' E 011°06'9 9.0
2016-Dec-07 20:33N 54°34' E 011°21'11 9.6
2016-Dec-07 19:25N 54°31' E 011°39'8 8.8
2016-Dec-07 18:31N 54°29' E 011°52'9 9.0
2016-Dec-07 17:34N 54°28' E 012°07'8 8.0
2016-Dec-07 16:33N 54°33' E 012°17'80 9.7
2016-Dec-07 08:20N 54°39' E 014°34'12 9.8
2016-Dec-07 07:07N 54°41' E 014°54'12810.2
2016-Dec-06 18:34N 54°56' E 018°35'10 9.8
2016-Dec-06 17:33N 54°54' E 018°51'10 9.7
2016-Dec-06 16:34N 54°51' E 019°07'  

Dump ship's entire track history